Observations for FIRENZE PERETOLA, Italy (LIRQ)

LIRQ 170050Z 07003KT CAVOK 16/11 Q1014  
LIRQ 170020Z 07003KT CAVOK 17/11 Q1014  
LIRQ 162350Z VRB02KT CAVOK 18/12 Q1014  
LIRQ 162320Z VRB02KT CAVOK 18/13 Q1014  
LIRQ 162250Z VRB01KT CAVOK 17/12 Q1014  
LIRQ 162220Z 31003KT 290V010 CAVOK 18/13 Q1014  
LIRQ 162150Z 29002KT CAVOK 20/13 Q1014  
LIRQ 162120Z VRB01KT CAVOK 20/11 Q1014  
LIRQ 162050Z 11005KT CAVOK 22/12 Q1013  
LIRQ 162020Z 11004KT CAVOK 22/12 Q1013  
LIRQ 161950Z 09002KT CAVOK 22/12 Q1013  
LIRQ 161920Z 06004KT CAVOK 23/11 Q1013  
LIRQ 161850Z 06005KT CAVOK 24/11 Q1013  
LIRQ 161820Z 05006KT CAVOK 26/11 Q1012  
LIRQ 161750Z 04007KT CAVOK 27/10 Q1012  
LIRQ 161720Z 03009KT CAVOK 28/10 Q1012  
LIRQ 161650Z 05009KT CAVOK 28/08 Q1012  
LIRQ 161620Z 04011KT CAVOK 29/08 Q1012  
LIRQ 161550Z 02007KT 330V070 CAVOK 29/09 Q1012  
LIRQ 161520Z 01010KT 330V030 CAVOK 29/09 Q1012  
LIRQ 161450Z VRB08KT CAVOK 29/09 Q1012  
LIRQ 161420Z 02007KT 330V080 9999 FEW045 29/10 Q1012
LIRQ 161350Z 02008KT 320V100 9999 FEW040 29/12 Q1012
LIRQ 161320Z VRB08KT 9999 FEW040 29/11 Q1013
LIRQ 161250Z 04011KT 360V070 9999 SCT035 28/11 Q1013
LIRQ 161220Z 01010KT 340V050 9999 FEW035 29/12 Q1013
LIRQ 161150Z 02011KT 350V070 9999 FEW035 29/12 Q1013
LIRQ 161120Z 36011KT 310V040 9999 FEW040 29/12 Q1013
LIRQ 161050Z 04007KT 350V110 9999 FEW040 28/13 Q1013
LIRQ 161020Z 02007KT 340V080 9999 FEW050 28/14 Q1013
LIRQ 160950Z 02009KT 330V050 9999 FEW050 27/13 Q1013
LIRQ 160920Z 02006KT 340V100 9999 FEW050 26/13 Q1013
LIRQ 160850Z 08007KT 020V120 9999 FEW050 26/14 Q1013
LIRQ 160820Z 02006KT 330V060 9999 FEW035 25/14 Q1013
LIRQ 160750Z 05006KT 340V080 9999 FEW040 25/15 Q1013
LIRQ 160720Z 36008KT 310V080 9999 FEW040 24/15 Q1012
LIRQ 160650Z 34006KT 300V020 9999 FEW040 23/15 Q1012
LIRQ 160620Z 33008KT 300V360 9999 FEW040 23/15 Q1012
LIRQ 160550Z VRB06KT 9999 FEW040 22/15 Q1012
LIRQ 160520Z 33005KT 260V050 9999 FEW040 22/14 Q1012
LIRQ 160450Z 21007KT 9999 FEW030 20/15 Q1011
LIRQ 160420Z 21006KT 9999 FEW030 19/14 Q1011
LIRQ 160350Z VRB04KT CAVOK 19/14 Q1011  
LIRQ 160320Z 24003KT 190V290 CAVOK 19/14 Q1011  
LIRQ 160250Z 34003KT CAVOK 20/14 Q1011  
LIRQ 160220Z 01008KT 330V040 CAVOK 21/14 Q1012  
LIRQ 160150Z 01007KT 330V060 CAVOK 21/15 Q1011  
LIRQ 160120Z 36007KT 290V090 CAVOK 21/15 Q1011  
LIRQ 160050Z 01006KT 330V070 CAVOK 21/14 Q1011